Time;durP1;ratioP1;P1;durP2;ratioP2;P2;SDS_P1;SDS_P2;PMS_P1;PMS_P2;Temp;Humidity;BMP_temperature;BMP_pressure;BME280_temperature;BME280_humidity;BME280_pressure;Samples;Min_cycle;Max_cycle;Signal;HPM_P1;HPM_P2
2022/07/09 00:00:42;;;;;;;15.65;5.10;;;16.40;99.90;;;;;;5026640;27;20498;-71
2022/07/09 00:03:08;;;;;;;10.02;4.97;;;16.40;99.90;;;;;;5025335;28;20043;-70
2022/07/09 00:05:33;;;;;;;13.77;5.53;;;16.40;99.90;;;;;;5025886;28;20178;-71
2022/07/09 00:07:59;;;;;;;13.30;5.50;;;16.40;99.90;;;;;;5045398;27;20033;-70
2022/07/09 00:10:25;;;;;;;12.32;5.18;;;16.40;99.90;;;;;;5009577;28;20162;-70
2022/07/09 00:12:50;;;;;;;14.52;6.00;;;16.40;99.90;;;;;;5020543;28;21678;-70
2022/07/09 00:15:16;;;;;;;11.70;5.40;;;16.40;99.90;;;;;;5026172;27;20041;-71
2022/07/09 00:17:42;;;;;;;12.70;5.68;;;16.40;99.90;;;;;;5022851;28;20681;-71
2022/07/09 00:20:08;;;;;;;13.10;5.13;;;16.40;99.90;;;;;;5020324;28;20076;-71
2022/07/09 00:22:34;;;;;;;10.00;4.85;;;16.40;99.90;;;;;;5025010;28;20045;-71
2022/07/09 00:25:01;;;;;;;13.05;4.68;;;16.40;99.90;;;;;;5021164;28;20068;-71
2022/07/09 00:27:27;;;;;;;12.13;4.53;;;16.40;99.90;;;;;;5008169;28;20403;-70
2022/07/09 00:29:53;;;;;;;12.55;4.57;;;16.40;99.90;;;;;;5023367;28;20045;-71
2022/07/09 00:32:19;;;;;;;18.13;4.85;;;16.40;99.90;;;;;;5024741;27;20056;-70
2022/07/09 00:34:45;;;;;;;10.25;4.88;;;16.40;99.90;;;;;;5021474;28;20413;-70
2022/07/09 00:37:11;;;;;;;11.00;4.53;;;16.40;99.90;;;;;;5023293;28;20043;-70
2022/07/09 00:39:37;;;;;;;13.30;4.78;;;16.40;99.90;;;;;;5010646;28;20387;-71
2022/07/09 00:42:08;;;;;;;13.55;4.80;;;16.50;99.90;;;;;;5023684;28;20033;-71
2022/07/09 00:44:35;;;;;;;11.55;4.97;;;16.50;99.90;;;;;;5021822;28;20045;-71
2022/07/09 00:47:02;;;;;;;17.50;5.03;;;16.50;99.90;;;;;;5039404;27;20195;-71
2022/07/09 00:49:32;;;;;;;10.57;4.80;;;16.50;99.90;;;;;;5024388;28;20086;-71
2022/07/09 00:51:59;;;;;;;12.73;4.80;;;16.50;99.90;;;;;;5024394;27;20045;-71
2022/07/09 00:54:25;;;;;;;9.93;4.30;;;16.50;99.90;;;;;;5024066;28;20041;-70
2022/07/09 00:56:54;;;;;;;16.88;4.50;;;16.60;99.90;;;;;;5023707;28;20041;-71
2022/07/09 00:59:21;;;;;;;11.18;5.10;;;16.50;99.90;;;;;;5023513;28;20055;-70
2022/07/09 01:01:49;;;;;;;14.10;5.07;;;16.50;99.90;;;;;;5030973;27;20060;-72
2022/07/09 01:04:15;;;;;;;11.05;4.50;;;16.50;99.90;;;;;;5019766;28;20527;-71
2022/07/09 01:06:41;;;;;;;14.80;4.85;;;16.50;99.90;;;;;;5005117;28;20375;-71
2022/07/09 01:09:07;;;;;;;12.55;4.93;;;16.50;99.90;;;;;;5022082;28;20666;-71
2022/07/09 01:11:33;;;;;;;17.38;5.13;;;16.50;99.90;;;;;;5021245;28;20570;-70
2022/07/09 01:13:59;;;;;;;12.32;4.65;;;16.50;99.90;;;;;;5037639;27;20205;-71
2022/07/09 01:16:37;;;;;;;13.68;4.63;;;16.50;99.90;;;;;;5041870;27;20041;-71
2022/07/09 01:19:03;;;;;;;15.90;4.97;;;16.50;99.90;;;;;;5037749;28;20040;-71
2022/07/09 01:21:29;;;;;;;15.10;4.85;;;16.50;99.90;;;;;;5027993;28;20045;-70
2022/07/09 01:23:56;;;;;;;11.80;5.00;;;16.50;99.90;;;;;;5042381;27;20048;-72
2022/07/09 01:26:23;;;;;;;14.55;4.97;;;16.50;99.90;;;;;;5031809;27;20522;-71
2022/07/09 01:28:49;;;;;;;14.77;5.45;;;16.40;99.90;;;;;;5031716;28;20052;-71
2022/07/09 01:31:15;;;;;;;14.52;5.35;;;16.50;99.90;;;;;;5022506;28;20044;-71
2022/07/09 01:33:41;;;;;;;10.77;4.97;;;16.50;99.90;;;;;;5036104;27;20047;-71
2022/07/09 01:36:10;;;;;;;12.80;5.28;;;16.50;99.90;;;;;;5041988;27;20044;-70
2022/07/09 01:38:36;;;;;;;12.93;5.07;;;16.50;99.90;;;;;;5028344;28;20045;-71
2022/07/09 01:41:03;;;;;;;14.32;5.55;;;16.50;99.90;;;;;;5016691;28;20044;-70
2022/07/09 01:43:30;;;;;;;16.30;6.03;;;16.50;99.90;;;;;;5014316;28;20060;-71
2022/07/09 01:45:56;;;;;;;13.27;5.25;;;16.50;99.90;;;;;;5042268;28;20049;-71
2022/07/09 01:48:26;;;;;;;17.10;5.93;;;16.50;99.90;;;;;;5032281;27;20411;-71
2022/07/09 01:50:53;;;;;;;12.07;5.00;;;16.50;99.90;;;;;;5029498;28;20095;-71
2022/07/09 01:53:19;;;;;;;12.05;5.50;;;16.40;99.90;;;;;;5021950;28;20049;-70
2022/07/09 01:55:45;;;;;;;12.05;5.32;;;16.40;99.90;;;;;;5031655;27;20045;-71
2022/07/09 01:58:10;;;;;;;10.88;4.70;;;16.40;99.90;;;;;;5013358;27;20041;-70
2022/07/09 02:00:36;;;;;;;15.02;5.57;;;16.40;99.90;;;;;;5011725;28;20044;-70
2022/07/09 02:03:02;;;;;;;13.38;5.30;;;16.30;99.90;;;;;;5060907;27;20124;-70
2022/07/09 02:05:27;;;;;;;13.70;4.93;;;16.40;99.90;;;;;;5026691;28;20128;-70
2022/07/09 02:07:53;;;;;;;16.52;5.65;;;16.30;99.90;;;;;;5029223;27;20062;-73
2022/07/09 02:10:19;;;;;;;10.77;4.63;;;16.30;99.90;;;;;;5041912;28;20450;-70
2022/07/09 02:12:44;;;;;;;12.70;5.05;;;16.30;99.90;;;;;;5037209;27;20052;-70
2022/07/09 02:15:10;;;;;;;12.32;5.13;;;16.30;99.90;;;;;;5047031;27;20132;-70
2022/07/09 02:17:36;;;;;;;14.07;5.38;;;16.30;99.90;;;;;;5050695;27;20443;-70
2022/07/09 02:20:03;;;;;;;16.27;5.88;;;16.30;99.90;;;;;;5046909;27;20127;-70
2022/07/09 02:22:28;;;;;;;11.70;5.07;;;16.30;99.90;;;;;;5050578;27;20045;-70
2022/07/09 02:24:54;;;;;;;14.20;4.93;;;16.30;99.90;;;;;;5011087;28;20382;-70
2022/07/09 02:27:20;;;;;;;10.25;4.32;;;16.30;99.90;;;;;;5051857;27;20041;-70
2022/07/09 02:29:46;;;;;;;10.57;4.18;;;16.30;99.90;;;;;;5027093;28;20510;-70
2022/07/09 02:32:12;;;;;;;12.85;5.00;;;16.30;99.90;;;;;;5061676;27;20184;-70
2022/07/09 02:34:39;;;;;;;13.93;4.07;;;16.30;99.90;;;;;;5033663;27;20085;-70
2022/07/09 02:37:05;;;;;;;14.20;4.20;;;16.30;99.90;;;;;;5016338;28;20053;-70
2022/07/09 02:39:31;;;;;;;11.57;4.15;;;16.30;99.90;;;;;;5050172;28;20040;-70
2022/07/09 02:41:57;;;;;;;10.15;3.65;;;16.30;99.90;;;;;;5026866;27;20041;-70
2022/07/09 02:44:26;;;;;;;13.15;3.95;;;16.30;99.90;;;;;;5028938;27;20048;-70
2022/07/09 02:46:51;;;;;;;11.65;4.15;;;16.30;99.90;;;;;;5030558;28;20074;-71
2022/07/09 02:49:18;;;;;;;10.23;3.67;;;16.30;99.90;;;;;;5029891;28;20095;-72
2022/07/09 02:51:43;;;;;;;15.30;4.70;;;16.30;99.90;;;;;;5048131;27;20401;-71
2022/07/09 02:54:09;;;;;;;9.98;3.60;;;16.30;99.90;;;;;;5044601;28;20033;-71
2022/07/09 02:56:35;;;;;;;8.95;3.60;;;16.30;99.90;;;;;;5034556;27;20044;-71
2022/07/09 02:59:02;;;;;;;9.20;3.92;;;16.20;99.90;;;;;;5030268;27;20545;-71
2022/07/09 03:01:28;;;;;;;11.48;4.38;;;16.20;99.90;;;;;;5044840;27;20072;-71
2022/07/09 03:03:54;;;;;;;9.50;3.67;;;16.30;99.90;;;;;;5063034;27;20069;-70
2022/07/09 03:06:20;;;;;;;10.38;3.22;;;16.20;99.90;;;;;;5019920;28;20037;-71
2022/07/09 03:08:45;;;;;;;11.98;3.75;;;16.10;99.90;;;;;;5011501;28;20037;-71
2022/07/09 03:11:11;;;;;;;11.48;4.00;;;16.00;99.90;;;;;;5044915;28;20069;-71
2022/07/09 03:13:37;;;;;;;8.55;3.47;;;16.00;99.90;;;;;;5045326;27;20053;-70
2022/07/09 03:16:03;;;;;;;13.02;4.60;;;16.00;99.90;;;;;;5044219;27;20041;-71
2022/07/09 03:18:29;;;;;;;13.82;4.00;;;16.00;99.90;;;;;;5018611;28;20445;-71
2022/07/09 03:20:55;;;;;;;11.57;4.03;;;15.90;99.90;;;;;;5030037;27;20072;-71
2022/07/09 03:23:21;;;;;;;9.75;4.10;;;15.90;99.90;;;;;;5042430;27;20097;-71
2022/07/09 03:25:47;;;;;;;9.90;3.97;;;15.90;99.90;;;;;;5034018;27;20674;-71
2022/07/09 03:28:12;;;;;;;11.13;3.92;;;15.90;99.90;;;;;;5046566;28;20045;-71
2022/07/09 03:30:38;;;;;;;8.02;3.45;;;15.90;99.90;;;;;;5028950;28;20069;-71
2022/07/09 03:33:04;;;;;;;9.23;3.90;;;15.90;99.90;;;;;;5030601;27;20509;-71
2022/07/09 03:35:30;;;;;;;9.35;3.67;;;15.90;99.90;;;;;;5025039;27;20129;-71
2022/07/09 03:37:56;;;;;;;9.00;3.63;;;15.90;99.90;;;;;;5027037;28;20069;-71
2022/07/09 03:40:21;;;;;;;12.05;4.20;;;15.90;99.90;;;;;;5031750;28;20037;-72
2022/07/09 03:42:47;;;;;;;9.40;3.60;;;15.90;99.90;;;;;;5058746;28;20049;-71
2022/07/09 03:45:13;;;;;;;12.52;3.72;;;15.90;99.90;;;;;;5024481;27;20052;-71
2022/07/09 03:47:39;;;;;;;10.80;4.28;;;15.90;99.90;;;;;;5039667;27;20033;-71
2022/07/09 03:50:06;;;;;;;10.88;3.50;;;15.90;99.90;;;;;;5050197;27;20048;-71
2022/07/09 03:52:31;;;;;;;8.77;4.00;;;15.90;99.90;;;;;;5015830;27;20131;-71
2022/07/09 03:54:57;;;;;;;9.35;3.65;;;15.90;99.90;;;;;;5028092;28;20513;-71
2022/07/09 03:57:23;;;;;;;9.52;4.07;;;15.90;99.90;;;;;;5026974;28;20033;-70
2022/07/09 03:59:48;;;;;;;10.68;3.88;;;16.00;99.90;;;;;;5058257;27;20068;-72
2022/07/09 04:02:14;;;;;;;12.13;4.53;;;15.90;99.90;;;;;;5050312;27;20037;-71
2022/07/09 04:04:40;;;;;;;10.43;4.40;;;15.90;99.90;;;;;;5041486;28;20082;-71
2022/07/09 04:07:06;;;;;;;15.52;4.60;;;15.90;99.90;;;;;;5023049;28;20664;-71
2022/07/09 04:09:31;;;;;;;10.15;4.05;;;15.90;99.90;;;;;;5008231;28;20056;-71
2022/07/09 04:11:57;;;;;;;9.77;4.18;;;16.00;99.90;;;;;;5055622;27;20512;-71
2022/07/09 04:14:23;;;;;;;11.63;4.00;;;16.00;99.90;;;;;;5017503;28;20132;-70
2022/07/09 04:16:48;;;;;;;13.35;4.78;;;16.00;99.90;;;;;;5040432;27;20052;-71
2022/07/09 04:19:14;;;;;;;9.80;3.83;;;16.00;99.90;;;;;;5038493;27;20033;-70
2022/07/09 04:21:40;;;;;;;15.23;4.30;;;16.00;99.90;;;;;;5041088;27;20531;-71
2022/07/09 04:24:06;;;;;;;9.32;4.63;;;16.10;99.90;;;;;;5039160;28;20055;-71
2022/07/09 04:26:31;;;;;;;11.35;4.25;;;16.10;99.90;;;;;;5023689;27;20049;-71
2022/07/09 04:28:57;;;;;;;9.02;4.13;;;16.20;99.90;;;;;;5029723;28;20049;-71
2022/07/09 04:31:26;;;;;;;10.98;4.47;;;16.20;99.90;;;;;;5026354;28;20037;-71
2022/07/09 04:33:51;;;;;;;11.40;4.55;;;16.20;99.90;;;;;;5037071;27;20130;-71
2022/07/09 04:36:17;;;;;;;14.25;5.30;;;16.20;99.90;;;;;;5024885;27;20075;-71
2022/07/09 04:38:42;;;;;;;10.93;4.45;;;16.30;99.90;;;;;;5029062;27;20413;-71
2022/07/09 04:41:08;;;;;;;13.07;4.28;;;16.30;99.90;;;;;;5042433;28;20124;-71
2022/07/09 04:43:34;;;;;;;10.95;4.70;;;16.30;99.90;;;;;;5058191;28;20405;-71
2022/07/09 04:46:00;;;;;;;10.57;4.28;;;16.40;99.90;;;;;;5039644;27;20033;-71
2022/07/09 04:48:26;;;;;;;10.40;4.65;;;16.30;99.90;;;;;;5026772;27;20049;-71
2022/07/09 04:50:52;;;;;;;10.13;4.40;;;16.40;99.90;;;;;;5050180;27;20045;-71
2022/07/09 04:53:17;;;;;;;9.07;3.90;;;16.40;99.90;;;;;;5025268;27;20048;-72
2022/07/09 04:55:44;;;;;;;11.95;4.82;;;16.50;99.90;;;;;;5044607;27;20066;-71
2022/07/09 04:58:10;;;;;;;9.32;4.60;;;16.50;99.90;;;;;;5039134;28;20512;-71
2022/07/09 05:00:35;;;;;;;10.38;4.38;;;16.60;99.90;;;;;;5019832;28;20045;-71
2022/07/09 05:03:01;;;;;;;9.30;4.07;;;16.60;99.90;;;;;;5009022;27;20045;-71
2022/07/09 05:05:27;;;;;;;10.90;4.40;;;16.60;99.90;;;;;;5016435;28;20332;-71
2022/07/09 05:07:55;;;;;;;8.48;3.85;;;16.60;99.90;;;;;;5022027;27;20147;-71
2022/07/09 05:10:21;;;;;;;9.40;4.28;;;16.70;99.90;;;;;;5038195;27;20496;-71
2022/07/09 05:12:47;;;;;;;10.15;4.07;;;16.80;99.90;;;;;;5007208;28;20144;-71
2022/07/09 05:15:14;;;;;;;14.45;4.50;;;16.90;99.90;;;;;;5051856;27;20561;-71
2022/07/09 05:17:41;;;;;;;11.27;3.75;;;16.90;99.90;;;;;;5050208;27;20053;-71
2022/07/09 05:20:08;;;;;;;10.25;4.18;;;17.00;99.90;;;;;;5009209;28;20128;-72
2022/07/09 05:22:35;;;;;;;8.98;3.83;;;17.00;99.90;;;;;;5012546;28;20140;-71
2022/07/09 05:25:01;;;;;;;8.40;3.33;;;17.10;99.90;;;;;;5029996;28;20041;-72
2022/07/09 05:27:28;;;;;;;9.38;3.30;;;17.20;99.90;;;;;;5045048;28;20037;-70
2022/07/09 05:29:54;;;;;;;12.13;4.43;;;17.20;99.90;;;;;;5039679;28;20538;-71
2022/07/09 05:32:20;;;;;;;12.13;4.30;;;17.20;99.90;;;;;;5025499;28;20033;-70
2022/07/09 05:34:45;;;;;;;7.40;3.22;;;17.20;99.90;;;;;;5044219;28;20463;-70
2022/07/09 05:37:11;;;;;;;8.02;4.07;;;17.20;99.90;;;;;;5029606;28;20078;-70
2022/07/09 05:39:37;;;;;;;10.07;3.67;;;17.30;99.90;;;;;;5030709;28;20049;-70
2022/07/09 05:42:03;;;;;;;8.52;3.83;;;17.30;99.90;;;;;;5024025;27;20486;-70
2022/07/09 05:44:28;;;;;;;9.02;3.75;;;17.30;99.90;;;;;;5042422;28;20401;-70
2022/07/09 05:46:54;;;;;;;10.32;3.80;;;17.30;99.90;;;;;;5006331;28;20048;-70
2022/07/09 05:49:20;;;;;;;10.25;3.80;;;17.30;99.90;;;;;;5018092;28;20037;-71
2022/07/09 05:51:45;;;;;;;11.50;3.38;;;17.40;99.90;;;;;;5021475;28;20045;-71
2022/07/09 05:54:11;;;;;;;7.50;3.53;;;17.40;99.90;;;;;;5030389;28;20041;-70
2022/07/09 05:56:37;;;;;;;9.40;3.38;;;17.40;99.90;;;;;;5040667;27;20037;-71
2022/07/09 05:59:03;;;;;;;9.32;3.53;;;17.40;99.90;;;;;;5040624;27;20131;-71
2022/07/09 06:01:29;;;;;;;9.10;3.45;;;17.50;99.90;;;;;;5077467;27;20061;-71
2022/07/09 06:03:56;;;;;;;9.13;3.10;;;17.50;99.90;;;;;;5039801;27;20041;-71
2022/07/09 06:06:22;;;;;;;7.47;3.25;;;17.50;99.90;;;;;;5027850;27;20045;-71
2022/07/09 06:08:48;;;;;;;10.35;3.30;;;17.60;99.90;;;;;;5043768;27;20695;-70
2022/07/09 06:11:14;;;;;;;7.45;2.95;;;17.60;99.90;;;;;;5050793;27;20035;-71
2022/07/09 06:13:40;;;;;;;9.45;2.85;;;17.60;99.90;;;;;;5035322;27;20064;-71
2022/07/09 06:16:06;;;;;;;10.18;3.30;;;17.60;99.90;;;;;;5026620;27;20037;-71
2022/07/09 06:18:32;;;;;;;12.52;3.65;;;17.70;99.90;;;;;;5049496;27;20095;-70
2022/07/09 06:20:57;;;;;;;9.48;3.13;;;17.70;99.90;;;;;;5028110;28;20048;-71
2022/07/09 06:23:23;;;;;;;8.43;2.90;;;17.70;99.90;;;;;;5028746;27;20072;-70
2022/07/09 06:25:49;;;;;;;8.73;3.03;;;17.80;99.90;;;;;;5045087;27;20120;-71
2022/07/09 06:28:15;;;;;;;9.13;2.97;;;17.80;99.90;;;;;;5009532;28;20033;-71
2022/07/09 06:30:41;;;;;;;7.10;2.42;;;17.90;99.90;;;;;;5012471;28;20041;-71
2022/07/09 06:33:07;;;;;;;6.95;2.30;;;17.90;99.90;;;;;;5028965;27;20042;-70
2022/07/09 06:35:32;;;;;;;8.23;2.95;;;18.00;99.90;;;;;;5041710;27;20052;-70
2022/07/09 06:37:58;;;;;;;9.20;2.63;;;18.10;99.90;;;;;;5010489;27;20052;-71
2022/07/09 06:40:24;;;;;;;7.38;2.63;;;18.10;99.90;;;;;;5010919;27;20180;-73
2022/07/09 06:42:50;;;;;;;7.38;2.50;;;18.10;99.90;;;;;;5046114;27;20060;-72
2022/07/09 06:45:16;;;;;;;8.65;2.38;;;18.20;99.90;;;;;;5028809;27;20556;-70
2022/07/09 06:47:42;;;;;;;6.53;2.72;;;18.20;99.90;;;;;;5025289;27;20072;-71
2022/07/09 06:50:07;;;;;;;8.85;3.17;;;18.20;99.90;;;;;;5028089;27;20485;-71
2022/07/09 06:52:33;;;;;;;10.15;2.60;;;18.20;99.90;;;;;;5024095;27;21299;-72
2022/07/09 06:54:59;;;;;;;8.63;2.88;;;18.20;99.90;;;;;;5026474;27;20037;-71
2022/07/09 06:57:24;;;;;;;5.38;1.90;;;18.20;99.90;;;;;;5024209;27;20527;-71
2022/07/09 06:59:50;;;;;;;9.02;2.55;;;18.20;99.90;;;;;;5026158;27;20053;-71
2022/07/09 07:02:16;;;;;;;8.15;2.05;;;18.30;99.90;;;;;;5024647;27;20505;-71
2022/07/09 07:04:42;;;;;;;10.25;2.08;;;18.30;99.90;;;;;;5024313;27;20044;-71
2022/07/09 07:07:08;;;;;;;11.38;2.38;;;18.40;99.90;;;;;;5025688;27;20044;-71
2022/07/09 07:09:34;;;;;;;10.85;3.13;;;18.40;99.90;;;;;;5004841;28;20033;-71
2022/07/09 07:11:59;;;;;;;10.02;2.40;;;18.40;99.90;;;;;;5042363;27;20036;-71
2022/07/09 07:14:25;;;;;;;7.15;1.95;;;18.40;99.90;;;;;;5030047;27;20122;-70
2022/07/09 07:16:52;;;;;;;12.02;2.30;;;18.50;99.90;;;;;;5029452;27;20053;-71
2022/07/09 07:19:20;;;;;;;5.35;2.10;;;18.60;99.90;;;;;;5020546;28;20077;-72
2022/07/09 07:21:47;;;;;;;8.30;2.15;;;18.70;99.90;;;;;;5038416;27;20067;-71
2022/07/09 07:24:13;;;;;;;10.65;3.00;;;18.70;99.90;;;;;;5016745;28;20364;-71
2022/07/09 07:26:39;;;;;;;9.13;2.22;;;18.80;99.90;;;;;;5007177;28;20049;-70
2022/07/09 07:29:04;;;;;;;7.55;2.05;;;19.00;99.90;;;;;;5039591;27;20029;-71
2022/07/09 07:31:30;;;;;;;6.63;2.15;;;19.10;99.90;;;;;;5020518;28;20108;-71
2022/07/09 07:33:57;;;;;;;7.78;1.95;;;19.20;99.90;;;;;;5024043;28;20084;-72
2022/07/09 07:36:23;;;;;;;6.85;1.90;;;19.30;99.90;;;;;;5021842;28;20128;-71
2022/07/09 07:38:49;;;;;;;7.53;2.10;;;19.50;99.90;;;;;;5039941;27;20057;-72
2022/07/09 07:41:16;;;;;;;8.25;2.03;;;19.70;99.90;;;;;;5043558;27;20448;-72
2022/07/09 07:43:42;;;;;;;8.32;1.90;;;19.80;99.90;;;;;;5055746;27;20105;-72
2022/07/09 07:46:08;;;;;;;9.90;2.33;;;19.90;99.90;;;;;;5025843;27;20120;-72
2022/07/09 07:48:37;;;;;;;12.48;1.80;;;19.80;99.90;;;;;;5033781;27;20047;-73
2022/07/09 07:51:04;;;;;;;7.53;1.88;;;19.80;99.90;;;;;;5033215;27;20048;-72
2022/07/09 07:53:31;;;;;;;5.35;1.60;;;19.70;99.90;;;;;;5009025;28;20053;-73
2022/07/09 07:55:57;;;;;;;7.30;1.98;;;19.70;99.90;;;;;;5047165;27;20151;-73
2022/07/09 07:58:23;;;;;;;9.60;1.88;;;19.80;99.90;;;;;;5020873;28;20470;-73
2022/07/09 08:00:48;;;;;;;8.05;1.70;;;19.80;99.90;;;;;;5043993;27;20037;-72
2022/07/09 08:03:14;;;;;;;9.32;1.83;;;20.00;99.90;;;;;;5042266;28;20045;-72
2022/07/09 08:05:40;;;;;;;9.45;1.75;;;20.20;99.90;;;;;;5009081;28;20123;-72
2022/07/09 08:08:05;;;;;;;11.57;2.25;;;20.70;99.90;;;;;;5093880;27;20617;-73
2022/07/09 08:10:31;;;;;;;7.22;1.98;;;21.10;99.90;;;;;;5038026;27;20045;-73
2022/07/09 08:12:57;;;;;;;10.55;2.00;;;21.60;99.90;;;;;;5024050;28;20477;-73
2022/07/09 08:15:23;;;;;;;5.18;1.77;;;22.00;99.90;;;;;;5034160;27;20371;-73
2022/07/09 08:17:48;;;;;;;5.25;1.48;;;22.20;99.90;;;;;;5028811;27;20485;-74
2022/07/09 08:20:15;;;;;;;7.28;1.80;;;22.10;99.90;;;;;;5030497;27;20045;-74
2022/07/09 08:22:41;;;;;;;6.50;1.70;;;22.00;99.90;;;;;;5027970;28;20052;-72
2022/07/09 08:25:07;;;;;;;9.55;2.00;;;21.70;99.90;;;;;;5029542;27;20120;-72
2022/07/09 08:27:33;;;;;;;9.02;2.05;;;21.60;99.90;;;;;;5048375;27;20420;-73
2022/07/09 08:29:59;;;;;;;9.40;1.90;;;21.80;99.90;;;;;;5043177;28;20047;-72
2022/07/09 08:32:25;;;;;;;6.95;1.50;;;21.90;99.90;;;;;;5010447;28;20049;-73
2022/07/09 08:34:50;;;;;;;8.45;1.67;;;21.90;99.90;;;;;;5031002;27;20435;-72
2022/07/09 08:37:16;;;;;;;8.20;1.60;;;22.20;99.90;;;;;;5045706;28;20037;-73
2022/07/09 08:39:42;;;;;;;5.05;1.30;;;22.30;99.90;;;;;;5023530;28;20443;-72
2022/07/09 08:42:10;;;;;;;6.50;1.95;;;22.40;99.90;;;;;;5025989;27;20049;-73
2022/07/09 08:44:38;;;;;;;9.25;1.42;;;22.70;99.90;;;;;;5049178;27;20421;-72
2022/07/09 08:47:05;;;;;;;6.93;1.40;;;22.70;99.90;;;;;;5019766;28;20037;-72
2022/07/09 08:49:32;;;;;;;7.75;1.67;;;23.10;99.90;;;;;;5021785;28;20408;-73
2022/07/09 08:51:57;;;;;;;6.53;1.40;;;23.30;99.90;;;;;;5014469;28;20045;-73
2022/07/09 08:54:24;;;;;;;7.20;1.58;;;23.30;99.90;;;;;;5037004;28;20083;-74
2022/07/09 08:56:51;;;;;;;4.95;1.30;;;23.40;99.90;;;;;;5039012;28;20072;-73
2022/07/09 08:59:17;;;;;;;8.65;1.63;;;23.40;99.90;;;;;;5037871;27;20036;-73
2022/07/09 09:01:43;;;;;;;5.90;1.23;;;23.20;99.90;;;;;;5005351;28;20071;-73
2022/07/09 09:04:08;;;;;;;5.93;1.52;;;23.10;99.90;;;;;;5016849;28;20074;-74
2022/07/09 09:06:39;;;;;;;8.25;1.35;;;23.40;99.90;;;;;;5037669;28;20044;-72
2022/07/09 09:09:08;;;;;;;9.45;1.67;;;23.70;99.90;;;;;;4998350;28;20102;-74
2022/07/09 09:11:36;;;;;;;5.68;1.60;;;23.60;99.90;;;;;;5032267;27;20052;-73
2022/07/09 09:14:03;;;;;;;6.63;1.58;;;23.30;99.90;;;;;;5029095;28;20068;-73
2022/07/09 09:16:29;;;;;;;6.82;1.48;;;23.20;99.90;;;;;;5028392;27;20087;-74
2022/07/09 09:18:59;;;;;;;9.38;1.95;;;23.50;99.90;;;;;;5001325;28;20132;-75
2022/07/09 09:21:26;;;;;;;7.43;1.43;;;23.90;99.90;;;;;;5003292;28;20498;-75
2022/07/09 09:23:55;;;;;;;4.45;1.55;;;24.30;99.90;;;;;;5020137;28;20045;-74
2022/07/09 09:26:27;;;;;;;6.75;1.75;;;24.20;99.90;;;;;;5035200;27;20037;-74
2022/07/09 09:28:53;;;;;;;7.63;1.30;;;23.80;99.90;;;;;;5019224;28;20463;-75
2022/07/09 09:31:26;;;;;;;12.30;1.92;;;23.30;99.90;;;;;;5021473;28;20455;-75
2022/07/09 09:33:56;;;;;;;9.30;2.30;;;22.90;99.90;;;;;;5067265;27;20129;-74
2022/07/09 09:36:33;;;;;;;6.70;1.67;;;22.50;99.90;;;;;;5067303;27;20053;-77
2022/07/09 09:39:18;;;;;;;7.13;1.85;;;22.30;99.90;;;;;;5033097;27;20154;-76
2022/07/09 09:41:48;;;;;;;7.43;1.60;;;22.20;99.90;;;;;;5028616;27;20584;-75
2022/07/09 09:44:21;;;;;;;6.47;1.90;;;22.10;99.90;;;;;;5012239;28;20045;-75
2022/07/09 09:46:47;;;;;;;7.30;1.50;;;22.10;99.90;;;;;;5029376;27;20126;-74
2022/07/09 09:49:15;;;;;;;7.25;1.58;;;22.40;99.90;;;;;;5030790;27;20052;-75
2022/07/09 09:51:49;;;;;;;10.27;1.63;;;22.80;99.90;;;;;;5004861;28;20521;-74
2022/07/09 09:54:17;;;;;;;7.55;1.38;;;23.20;99.90;;;;;;5005911;27;20131;-75
2022/07/09 09:56:43;;;;;;;8.52;1.30;;;23.50;99.90;;;;;;5039635;27;20052;-75
2022/07/09 09:59:10;;;;;;;9.68;1.60;;;23.80;99.90;;;;;;5021951;28;20045;-74
2022/07/09 10:01:37;;;;;;;9.30;1.50;;;24.00;99.90;;;;;;5053909;28;20621;-75
2022/07/09 10:04:03;;;;;;;9.15;1.80;;;24.20;99.90;;;;;;5023115;28;20065;-74
2022/07/09 10:06:29;;;;;;;5.97;1.58;;;24.00;99.90;;;;;;5055469;27;20041;-75
2022/07/09 10:08:56;;;;;;;7.30;1.50;;;23.50;99.90;;;;;;5040457;28;20041;-75
2022/07/09 10:11:23;;;;;;;7.25;1.70;;;23.00;99.90;;;;;;5059689;27;20501;-74
2022/07/09 10:13:56;;;;;;;8.15;1.80;;;22.60;99.90;;;;;;5067548;27;20084;-74
2022/07/09 10:16:35;;;;;;;8.15;1.60;;;22.50;99.90;;;;;;5044249;27;20049;-74
2022/07/09 10:19:01;;;;;;;6.18;1.77;;;22.70;99.90;;;;;;5044878;27;20156;-75
2022/07/09 10:21:34;;;;;;;8.15;1.75;;;22.50;99.90;;;;;;5040582;28;20119;-73
2022/07/09 10:23:59;;;;;;;6.60;1.52;;;21.90;99.90;;;;;;5022385;28;20053;-73
2022/07/09 10:26:41;;;;;;;6.28;1.60;;;21.20;99.90;;;;;;5006664;28;20045;-73
2022/07/09 10:29:27;;;;;;;11.13;2.08;;;20.60;99.90;;;;;;5006819;28;20101;-74
2022/07/09 10:31:54;;;;;;;10.07;1.80;;;20.00;99.90;;;;;;5024069;27;20061;-72
2022/07/09 10:34:45;;;;;;;12.20;2.28;;;19.60;99.90;;;;;;5028432;27;20125;-73
2022/07/09 10:37:11;;;;;;;11.93;2.67;;;19.30;99.90;;;;;;5025947;28;20535;-75
2022/07/09 10:39:37;;;;;;;9.15;1.85;;;19.00;99.90;;;;;;5027692;27;20535;-74
2022/07/09 10:42:05;;;;;;;11.10;1.90;;;19.10;99.90;;;;;;5023257;28;20049;-74
2022/07/09 10:44:39;;;;;;;11.45;2.30;;;19.20;99.90;;;;;;5022981;28;20048;-74
2022/07/09 10:47:05;;;;;;;12.48;2.20;;;19.30;99.90;;;;;;5021104;27;20468;-74
2022/07/09 10:49:34;;;;;;;11.45;2.17;;;19.30;99.90;;;;;;5023379;28;20132;-75
2022/07/09 10:52:00;;;;;;;9.77;1.85;;;19.40;99.90;;;;;;5042462;28;20055;-74
2022/07/09 10:54:26;;;;;;;10.38;2.05;;;19.40;99.90;;;;;;5043749;27;20421;-74
2022/07/09 10:56:53;;;;;;;11.38;2.17;;;19.50;99.90;;;;;;5041049;27;20365;-74
2022/07/09 10:59:19;;;;;;;8.43;1.70;;;19.60;99.90;;;;;;5037580;27;20042;-75
2022/07/09 11:01:45;;;;;;;7.90;1.45;;;19.80;99.90;;;;;;5040611;27;20405;-74
2022/07/09 11:04:13;;;;;;;8.55;1.70;;;19.80;99.90;;;;;;5047293;27;20468;-74
2022/07/09 11:06:49;;;;;;;6.40;1.55;;;20.10;99.90;;;;;;5056455;27;20150;-74
2022/07/09 11:09:16;;;;;;;12.48;1.75;;;20.40;99.90;;;;;;5004832;27;20047;-74
2022/07/09 11:11:43;;;;;;;10.10;1.42;;;20.60;99.90;;;;;;5019882;27;20073;-73
2022/07/09 11:14:10;;;;;;;7.20;1.75;;;20.60;99.90;;;;;;5031112;27;20782;-74
2022/07/09 11:16:36;;;;;;;7.68;1.73;;;20.60;99.90;;;;;;5043549;27;20193;-74
2022/07/09 11:19:19;;;;;;;6.15;1.23;;;20.80;99.90;;;;;;5018743;28;20058;-73
2022/07/09 11:21:46;;;;;;;6.55;1.48;;;20.90;99.90;;;;;;5019259;28;20052;-74
2022/07/09 11:24:19;;;;;;;10.63;1.75;;;21.20;99.90;;;;;;5018450;28;20049;-74
2022/07/09 11:26:49;;;;;;;7.47;1.33;;;21.30;99.90;;;;;;5019566;28;20045;-74
2022/07/09 11:29:19;;;;;;;8.27;1.40;;;21.40;99.90;;;;;;4999309;28;20050;-75
2022/07/09 11:31:49;;;;;;;5.07;1.08;;;21.40;99.90;;;;;;5021773;28;20041;-74
2022/07/09 11:34:19;;;;;;;9.63;1.48;;;21.40;99.90;;;;;;5018520;28;20041;-74
2022/07/09 11:36:50;;;;;;;7.63;1.40;;;21.40;99.90;;;;;;5019533;28;20030;-74
2022/07/09 11:39:26;;;;;;;3.25;0.80;;;21.50;99.90;;;;;;5052898;27;20041;-75
2022/07/09 11:41:54;;;;;;;6.40;1.23;;;21.60;99.90;;;;;;5004257;28;20037;-74
2022/07/09 11:44:33;;;;;;;7.65;1.00;;;21.70;99.90;;;;;;5018072;28;20742;-74
2022/07/09 11:47:10;;;;;;;7.10;1.10;;;21.80;99.90;;;;;;5017733;28;20075;-74
2022/07/09 11:49:43;;;;;;;8.23;1.17;;;21.90;99.90;;;;;;5048032;27;20490;-75
2022/07/09 11:52:20;;;;;;;6.40;1.27;;;21.90;99.90;;;;;;5024072;27;20579;-74
2022/07/09 11:54:56;;;;;;;5.68;1.25;;;22.00;99.90;;;;;;5019880;28;20048;-74
2022/07/09 11:57:25;;;;;;;8.50;1.52;;;22.00;99.90;;;;;;5016524;28;20052;-75
2022/07/09 11:59:51;;;;;;;5.82;1.65;;;22.00;99.90;;;;;;5016791;28;20071;-74
2022/07/09 12:02:43;;;;;;;8.43;1.42;;;22.10;99.90;;;;;;5019869;28;20037;-75
2022/07/09 12:05:09;;;;;;;7.30;1.15;;;22.00;99.90;;;;;;5023066;27;20061;-74
2022/07/09 12:07:35;;;;;;;4.97;0.93;;;21.90;99.90;;;;;;5024042;27;20080;-75
2022/07/09 12:10:08;;;;;;;8.07;1.40;;;22.00;99.90;;;;;;5023931;27;20299;-75
2022/07/09 12:12:35;;;;;;;8.75;1.30;;;21.90;99.90;;;;;;5024527;27;20048;-75
2022/07/09 12:15:03;;;;;;;7.63;1.23;;;21.80;99.90;;;;;;5029283;27;20037;-74
2022/07/09 12:17:30;;;;;;;5.43;1.10;;;22.00;99.90;;;;;;5022628;27;20071;-74
2022/07/09 12:19:57;;;;;;;4.88;1.10;;;21.90;99.90;;;;;;5037605;27;20497;-73
2022/07/09 12:22:23;;;;;;;5.63;1.35;;;21.90;99.90;;;;;;5025586;28;20120;-73
2022/07/09 12:24:51;;;;;;;5.07;0.98;;;22.00;99.90;;;;;;5044394;27;20097;-73
2022/07/09 12:27:17;;;;;;;8.60;1.20;;;22.10;99.90;;;;;;5033792;27;20081;-74
2022/07/09 12:29:43;;;;;;;4.07;0.95;;;22.10;99.90;;;;;;5038345;27;20151;-74
2022/07/09 12:32:08;;;;;;;9.32;1.42;;;22.20;99.90;;;;;;5035558;28;20823;-74
2022/07/09 12:34:35;;;;;;;6.25;1.38;;;22.20;99.90;;;;;;5003027;28;20040;-74
2022/07/09 12:37:01;;;;;;;10.35;1.30;;;22.40;99.90;;;;;;5051870;27;20036;-73
2022/07/09 12:39:27;;;;;;;6.85;1.45;;;22.30;99.90;;;;;;5033973;28;20055;-73
2022/07/09 12:41:53;;;;;;;8.40;1.33;;;22.40;99.90;;;;;;5050995;27;20050;-73